createdAt,value
2019-04-25T00:00:48.144Z,99.99
2019-04-25T00:01:48.134Z,99.99
2019-04-25T00:02:48.108Z,99.99
2019-04-25T00:03:48.094Z,99.99
2019-04-25T00:04:48.088Z,99.99
2019-04-25T00:05:48.061Z,99.99
2019-04-25T00:06:48.245Z,99.99
2019-04-25T00:07:48.024Z,99.99
2019-04-25T00:08:48.007Z,99.99
2019-04-25T00:09:47.992Z,99.99
2019-04-25T00:10:47.993Z,99.99
2019-04-25T00:11:48.920Z,99.99
2019-04-25T00:12:48.103Z,99.99
2019-04-25T00:13:47.923Z,99.99
2019-04-25T00:14:48.161Z,99.99
2019-04-25T00:15:48.135Z,99.99
2019-04-25T00:16:47.871Z,99.99
2019-04-25T00:17:48.247Z,99.99
2019-04-25T00:18:48.409Z,99.99
2019-04-25T00:19:48.551Z,99.99
2019-04-25T00:20:48.755Z,99.99
2019-04-25T00:21:47.786Z,99.99
2019-04-25T00:22:47.771Z,99.99
2019-04-25T00:23:47.752Z,99.99
2019-04-25T00:24:47.736Z,99.99
2019-04-25T00:25:48.335Z,99.99
2019-04-25T00:26:48.561Z,99.99
2019-04-25T00:27:48.495Z,99.99
2019-04-25T00:28:47.668Z,99.99
2019-04-25T00:29:47.656Z,99.99
2019-04-25T00:30:48.069Z,99.99
2019-04-25T00:31:47.620Z,99.99
2019-04-25T00:32:47.599Z,99.99
2019-04-25T00:33:47.582Z,99.99
2019-04-25T00:34:48.422Z,99.99
2019-04-25T00:35:47.553Z,99.99
2019-04-25T00:36:47.532Z,99.99
2019-04-25T00:37:47.776Z,99.99
2019-04-25T00:38:48.298Z,99.99
2019-04-25T00:39:47.483Z,99.99
2019-04-25T00:40:48.049Z,99.99
2019-04-25T00:41:47.447Z,99.99
2019-04-25T00:42:48.226Z,99.99
2019-04-25T00:43:47.483Z,99.99
2019-04-25T00:44:47.405Z,99.99
2019-04-25T00:45:47.501Z,99.99
2019-04-25T00:46:49.037Z,99.99
2019-04-25T00:47:47.764Z,99.99
2019-04-25T00:48:47.730Z,99.99
2019-04-25T00:49:47.958Z,99.99
2019-04-25T00:50:47.995Z,99.99
2019-04-25T00:51:48.238Z,99.99
2019-04-25T00:52:47.256Z,99.99
2019-04-25T00:53:47.970Z,99.99
2019-04-25T00:54:47.230Z,99.99
2019-04-25T00:55:47.204Z,99.99
2019-04-25T00:56:48.285Z,99.99
2019-04-25T00:57:47.166Z,99.99
2019-04-25T00:58:47.149Z,99.99
2019-04-25T00:59:48.962Z,99.99
2019-04-25T01:00:47.116Z,99.99
2019-04-25T01:01:48.011Z,99.99
2019-04-25T01:02:47.344Z,99.99
2019-04-25T01:03:47.215Z,99.99
2019-04-25T01:04:47.226Z,99.99
2019-04-25T01:05:47.506Z,99.99
2019-04-25T01:06:47.556Z,99.99
2019-04-25T01:07:47.737Z,99.99
2019-04-25T01:08:47.750Z,99.99
2019-04-25T01:09:47.710Z,99.99
2019-04-25T01:10:47.898Z,99.99
2019-04-25T01:11:46.922Z,99.99
2019-04-25T01:12:46.903Z,99.99
2019-04-25T01:13:46.885Z,99.99
2019-04-25T01:14:46.865Z,99.99
2019-04-25T01:15:46.854Z,99.99
2019-04-25T01:16:46.831Z,99.99
2019-04-25T01:17:47.020Z,99.99
2019-04-25T01:18:46.851Z,99.99
2019-04-25T01:19:46.839Z,99.99
2019-04-25T01:20:46.987Z,99.99
2019-04-25T01:21:47.007Z,99.99
2019-04-25T01:22:47.193Z,99.99
2019-04-25T01:23:47.284Z,99.99
2019-04-25T01:24:47.247Z,99.99
2019-04-25T01:25:47.041Z,99.99
2019-04-25T01:26:47.467Z,99.99
2019-04-25T01:27:46.638Z,99.99
2019-04-25T01:28:46.622Z,99.99
2019-04-25T01:29:46.615Z,99.99
2019-04-25T01:30:46.587Z,99.99
2019-04-25T01:31:46.642Z,99.99
2019-04-25T01:32:46.777Z,99.99
2019-04-25T01:33:46.766Z,99.99
2019-04-25T01:35:47.359Z,99.99
2019-04-25T01:36:47.217Z,99.99
2019-04-25T01:37:47.407Z,99.99
2019-04-25T01:38:47.317Z,99.99
2019-04-25T01:39:47.372Z,99.99
2019-04-25T01:40:48.124Z,99.99
2019-04-25T01:41:47.587Z,99.99
2019-04-25T01:42:47.841Z,99.99
2019-04-25T01:43:47.385Z,99.99
2019-04-25T01:44:47.919Z,99.99
2019-04-25T01:45:46.331Z,99.99
2019-04-25T01:46:46.308Z,99.99
2019-04-25T01:47:46.289Z,99.99
2019-04-25T01:48:46.273Z,99.99
2019-04-25T01:49:46.252Z,99.99
2019-04-25T01:50:46.238Z,99.99
2019-04-25T01:51:46.220Z,99.99
2019-04-25T01:52:46.201Z,99.99
2019-04-25T01:53:46.185Z,99.99
2019-04-25T01:54:46.167Z,99.99
2019-04-25T01:55:56.056Z,99.99
2019-04-25T01:56:46.132Z,99.99
2019-04-25T01:57:46.118Z,99.99
2019-04-25T01:58:46.100Z,99.99
2019-04-25T01:59:46.082Z,99.99
2019-04-25T02:00:46.075Z,99.99
2019-04-25T02:01:46.044Z,99.99
2019-04-25T02:02:46.028Z,99.99
2019-04-25T02:03:46.007Z,99.99
2019-04-25T02:04:45.993Z,99.99
2019-04-25T02:05:45.974Z,99.99
2019-04-25T02:07:45.943Z,99.99
2019-04-25T02:08:45.919Z,99.99
2019-04-25T02:09:45.915Z,99.99
2019-04-25T02:10:45.884Z,99.99
2019-04-25T02:11:45.866Z,99.99
2019-04-25T02:12:45.850Z,99.99
2019-04-25T02:13:45.830Z,99.99
2019-04-25T02:14:45.818Z,99.99
2019-04-25T02:15:45.794Z,99.99
2019-04-25T02:16:45.777Z,99.99
2019-04-25T02:17:45.765Z,99.99
2019-04-25T02:18:45.748Z,99.99
2019-04-25T02:19:45.726Z,99.99
2019-04-25T02:20:45.708Z,99.99
2019-04-25T02:21:45.688Z,99.99
2019-04-25T02:22:45.672Z,99.99
2019-04-25T02:23:45.652Z,99.99
2019-04-25T02:24:45.636Z,99.99
2019-04-25T02:25:45.620Z,99.99
2019-04-25T02:26:45.598Z,99.99
2019-04-25T02:27:45.580Z,99.99
2019-04-25T02:28:45.561Z,99.99
2019-04-25T02:29:45.592Z,99.99
2019-04-25T02:30:45.616Z,99.99
2019-04-25T02:31:45.508Z,99.99
2019-04-25T02:32:45.492Z,99.99
2019-04-25T02:33:45.482Z,99.99
2019-04-25T02:34:45.777Z,99.99
2019-04-25T02:35:46.721Z,99.99
2019-04-25T02:36:47.008Z,99.99
2019-04-25T02:37:45.402Z,99.99
2019-04-25T02:38:45.385Z,99.99
2019-04-25T02:39:45.368Z,99.99
2019-04-25T02:40:45.680Z,99.99
2019-04-25T02:41:45.347Z,99.99
2019-04-25T02:42:45.307Z,99.99
2019-04-25T02:43:45.396Z,99.99
2019-04-25T02:44:45.354Z,99.99
2019-04-25T02:45:45.256Z,99.99
2019-04-25T02:46:45.236Z,99.99
2019-04-25T02:47:46.283Z,99.99
2019-04-25T02:48:45.208Z,99.99
2019-04-25T02:49:45.185Z,99.99
2019-04-25T02:50:46.232Z,99.99
2019-04-25T02:51:45.190Z,99.99
2019-04-25T02:52:45.137Z,99.99
2019-04-25T02:53:45.137Z,99.99
2019-04-25T02:54:45.103Z,99.99
2019-04-25T02:55:45.070Z,99.99
2019-04-25T02:56:46.666Z,99.99
2019-04-25T02:57:45.049Z,99.99
2019-04-25T02:58:45.017Z,99.99
2019-04-25T02:59:45.241Z,99.99
2019-04-25T03:00:54.869Z,99.99
2019-04-25T03:01:44.962Z,99.99
2019-04-25T03:02:44.941Z,99.99
2019-04-25T03:03:45.119Z,99.99
2019-04-25T03:04:44.901Z,99.99
2019-04-25T03:05:47.636Z,99.99
2019-04-25T03:06:45.476Z,99.99
2019-04-25T03:07:44.859Z,99.99
2019-04-25T03:08:45.127Z,99.99
2019-04-25T03:09:45.234Z,99.99
2019-04-25T03:10:44.791Z,99.99
2019-04-25T03:11:45.678Z,99.99
2019-04-25T03:12:44.856Z,99.99
2019-04-25T03:13:44.741Z,99.99
2019-04-25T03:14:44.886Z,99.99
2019-04-25T03:15:44.698Z,99.99
2019-04-25T03:16:45.027Z,99.99
2019-04-25T03:17:44.666Z,99.99
2019-04-25T03:18:44.654Z,99.99
2019-04-25T03:19:44.632Z,99.99
2019-04-25T03:20:45.153Z,99.99
2019-04-25T03:21:45.290Z,99.99
2019-04-25T03:22:44.658Z,99.99
2019-04-25T03:23:46.472Z,99.99
2019-04-25T03:24:45.890Z,99.99
2019-04-25T03:25:44.507Z,99.99
2019-04-25T03:26:44.490Z,99.99
2019-04-25T03:27:44.471Z,99.99
2019-04-25T03:28:44.457Z,99.99
2019-04-25T03:29:45.697Z,99.99
2019-04-25T03:30:45.003Z,99.99
2019-04-25T03:31:45.098Z,99.99
2019-04-25T03:32:45.092Z,99.99
2019-04-25T03:33:45.780Z,99.99
2019-04-25T03:34:44.339Z,99.99
2019-04-25T03:35:44.328Z,99.99
2019-04-25T03:36:44.303Z,99.99
2019-04-25T03:37:44.283Z,99.99
2019-04-25T03:38:44.272Z,99.99
2019-04-25T03:39:44.248Z,99.99
2019-04-25T03:40:44.227Z,99.99
2019-04-25T03:41:45.462Z,99.99
2019-04-25T03:42:44.196Z,99.99
2019-04-25T03:43:44.303Z,99.99
2019-04-25T03:44:44.152Z,99.99
2019-04-25T03:45:45.296Z,99.99
2019-04-25T03:46:44.125Z,99.99
2019-04-25T03:47:44.102Z,99.99
2019-04-25T03:48:44.221Z,99.99
2019-04-25T03:49:44.063Z,99.99
2019-04-25T03:50:44.225Z,99.99
2019-04-25T03:51:44.034Z,99.99
2019-04-25T03:52:44.006Z,99.99
2019-04-25T03:53:43.990Z,99.99
2019-04-25T03:54:43.979Z,99.99
2019-04-25T03:55:44.359Z,99.99
2019-04-25T03:56:52.677Z,99.99
2019-04-25T03:57:44.400Z,99.99
2019-04-25T03:58:44.081Z,99.99
2019-04-25T03:59:43.883Z,99.99
2019-04-25T04:00:44.706Z,99.99
2019-04-25T04:01:44.002Z,99.99
2019-04-25T04:02:44.369Z,99.99
2019-04-25T04:03:44.133Z,99.99
2019-04-25T04:04:43.787Z,99.99
2019-04-25T04:05:44.210Z,99.99
2019-04-25T04:06:44.142Z,99.99
2019-04-25T04:07:43.730Z,99.99
2019-04-25T04:08:44.246Z,99.99
2019-04-25T04:09:43.696Z,99.99
2019-04-25T04:10:43.679Z,99.99
2019-04-25T04:11:43.661Z,99.99
2019-04-25T04:12:44.358Z,99.99
2019-04-25T04:13:44.123Z,99.99
2019-04-25T04:14:43.793Z,99.99
2019-04-25T04:15:43.586Z,99.99
2019-04-25T04:16:44.346Z,99.99
2019-04-25T04:17:43.844Z,99.99
2019-04-25T04:18:44.175Z,99.99
2019-04-25T04:19:45.016Z,99.99
2019-04-25T04:20:43.639Z,99.99
2019-04-25T04:21:43.475Z,99.99
2019-04-25T04:22:43.889Z,99.99
2019-04-25T04:23:43.439Z,99.99
2019-04-25T04:24:44.022Z,99.99
2019-04-25T04:25:43.415Z,99.99
2019-04-25T04:26:43.380Z,99.99
2019-04-25T04:27:43.782Z,99.99
2019-04-25T04:28:43.574Z,99.99
2019-04-25T04:29:43.330Z,99.99
2019-04-25T04:30:43.620Z,99.99
2019-04-25T04:31:43.290Z,99.99
2019-04-25T04:32:44.139Z,99.99
2019-04-25T04:33:43.254Z,99.99
2019-04-25T04:34:45.350Z,99.99
2019-04-25T04:35:44.197Z,99.99
2019-04-25T04:36:43.723Z,99.99
2019-04-25T04:37:43.266Z,99.99
2019-04-25T04:38:44.426Z,99.99
2019-04-25T04:39:43.774Z,99.99
2019-04-25T04:40:44.157Z,99.99
2019-04-25T04:41:43.690Z,99.99
2019-04-25T04:42:43.502Z,99.99
2019-04-25T04:43:44.108Z,99.99
2019-04-25T04:44:43.763Z,99.99
2019-04-25T04:45:44.980Z,99.99
2019-04-25T04:46:43.984Z,99.99
2019-04-25T04:47:43.391Z,99.99
2019-04-25T04:48:43.864Z,99.99
2019-04-25T04:49:43.944Z,99.99
2019-04-25T04:50:43.466Z,99.99
2019-04-25T04:51:44.419Z,99.99
2019-04-25T04:52:43.975Z,99.99
2019-04-25T04:53:43.843Z,99.99
2019-04-25T04:54:43.960Z,99.99
2019-04-25T04:55:43.205Z,99.99
2019-04-25T04:56:43.830Z,99.99
2019-04-25T04:57:44.601Z,99.99
2019-04-25T04:58:43.190Z,99.99
2019-04-25T04:59:43.825Z,99.99
2019-04-25T05:00:43.788Z,99.99
2019-04-25T05:01:42.990Z,99.99
2019-04-25T05:02:43.399Z,99.99
2019-04-25T05:03:44.092Z,99.99
2019-04-25T05:04:43.601Z,99.99
2019-04-25T05:05:44.019Z,99.99
2019-04-25T05:06:43.701Z,99.99
2019-04-25T05:07:43.924Z,99.99
2019-04-25T05:08:43.559Z,99.99
2019-04-25T05:09:43.519Z,99.99
2019-04-25T05:10:43.236Z,99.99
2019-04-25T05:11:44.141Z,99.99
2019-04-25T05:12:43.786Z,99.99
2019-04-25T05:13:44.072Z,99.99
2019-04-25T05:14:43.638Z,99.99
2019-04-25T05:15:42.981Z,99.99
2019-04-25T05:16:43.220Z,99.99
2019-04-25T05:17:43.957Z,99.99
2019-04-25T05:18:43.768Z,99.99
2019-04-25T05:19:43.430Z,99.85
2019-04-25T05:20:43.997Z,99.99
2019-04-25T05:21:43.553Z,99.99
2019-04-25T05:22:42.357Z,99.37
2019-04-25T05:23:42.339Z,99.95
2019-04-25T05:24:43.754Z,99.99
2019-04-25T05:25:42.301Z,99.99
2019-04-25T05:26:43.987Z,99.99
2019-04-25T05:27:59.028Z,99.85
2019-04-25T05:28:42.248Z,99.85
2019-04-25T05:29:43.882Z,99.99
2019-04-25T05:30:43.589Z,99.56
2019-04-25T05:31:42.196Z,99.99
2019-04-25T05:32:42.213Z,99.99
2019-04-25T05:33:45.210Z,99.99
2019-04-25T05:34:42.137Z,99.23
2019-04-25T05:35:42.128Z,98.85
2019-04-25T05:36:43.816Z,98.85
2019-04-25T05:37:43.593Z,98.27
2019-04-25T05:38:43.579Z,97.89
2019-04-25T05:39:43.452Z,97.80
2019-04-25T05:40:43.748Z,98.47
2019-04-25T05:41:42.017Z,98.27
2019-04-25T05:42:41.993Z,98.27
2019-04-25T05:43:43.498Z,98.27
2019-04-25T05:44:41.955Z,98.61
2019-04-25T05:45:41.947Z,98.03
2019-04-25T05:46:41.920Z,97.47
2019-04-25T05:47:41.904Z,97.42
2019-04-25T05:48:41.890Z,97.61
2019-04-25T05:49:41.867Z,97.71
2019-04-25T05:50:43.623Z,97.71
2019-04-25T05:51:41.833Z,97.13
2019-04-25T05:52:41.821Z,96.98
2019-04-25T05:53:43.252Z,96.98
2019-04-25T05:54:41.778Z,96.32
2019-04-25T05:55:41.763Z,96.61
2019-04-25T05:56:41.749Z,96.51
2019-04-25T05:57:47.329Z,96.03
2019-04-25T05:58:41.706Z,95.56
2019-04-25T05:59:41.689Z,95.61
2019-04-25T06:00:41.674Z,94.84
2019-04-25T06:01:43.368Z,95.32
2019-04-25T06:02:41.639Z,94.74
2019-04-25T06:03:41.635Z,93.50
2019-04-25T06:04:41.608Z,93.31
2019-04-25T06:05:43.222Z,93.12
2019-04-25T06:06:41.566Z,92.07
2019-04-25T06:08:41.542Z,91.69
2019-04-25T06:09:41.517Z,92.26
2019-04-25T06:10:41.504Z,91.97
2019-04-25T06:11:41.479Z,91.88
2019-04-25T06:12:41.541Z,91.21
2019-04-25T06:13:43.278Z,91.88
2019-04-25T06:14:43.283Z,91.59
2019-04-25T06:15:41.408Z,91.59
2019-04-25T06:16:41.391Z,92.07
2019-04-25T06:17:41.381Z,91.30
2019-04-25T06:18:41.364Z,91.50
2019-04-25T06:19:41.339Z,91.30
2019-04-25T06:20:41.322Z,91.69
2019-04-25T06:21:41.310Z,91.50
2019-04-25T06:22:41.290Z,92.26
2019-04-25T06:23:41.273Z,91.21
2019-04-25T06:24:41.260Z,91.78
2019-04-25T06:25:41.234Z,91.69
2019-04-25T06:26:41.222Z,92.07
2019-04-25T06:27:41.204Z,91.97
2019-04-25T06:28:52.003Z,91.50
2019-04-25T06:29:41.162Z,91.30
2019-04-25T06:30:41.150Z,91.78
2019-04-25T06:31:41.128Z,91.50
2019-04-25T06:32:41.108Z,91.21
2019-04-25T06:33:41.178Z,90.88
2019-04-25T06:34:41.075Z,90.78
2019-04-25T06:35:41.060Z,90.20
2019-04-25T06:36:41.038Z,89.82
2019-04-25T06:37:41.022Z,89.34
2019-04-25T06:38:41.011Z,89.06
2019-04-25T06:39:40.989Z,88.96
2019-04-25T06:40:40.973Z,87.57
2019-04-25T06:41:40.953Z,87.66
2019-04-25T06:42:40.942Z,87.38
2019-04-25T06:43:40.923Z,87.29
2019-04-25T06:44:40.903Z,86.80
2019-04-25T06:45:40.906Z,86.52
2019-04-25T06:46:40.869Z,87.19
2019-04-25T06:47:40.852Z,86.90
2019-04-25T06:48:40.838Z,86.47
2019-04-25T06:49:40.820Z,85.51
2019-04-25T06:50:40.808Z,84.84
2019-04-25T06:51:40.785Z,84.94
2019-04-25T06:52:40.766Z,85.13
2019-04-25T06:53:40.753Z,84.84
2019-04-25T06:54:40.736Z,83.83
2019-04-25T06:55:40.717Z,83.36
2019-04-25T06:56:40.699Z,84.02
2019-04-25T06:57:40.688Z,82.20
2019-04-25T06:58:40.667Z,81.54
2019-04-25T06:59:41.559Z,81.00
2019-04-25T07:00:45.549Z,81.10
2019-04-25T07:01:40.625Z,80.33
2019-04-25T07:02:40.606Z,80.43
2019-04-25T07:03:40.592Z,80.04
2019-04-25T07:04:40.579Z,79.05
2019-04-25T07:05:40.929Z,80.19
2019-04-25T07:06:40.539Z,80.33
2019-04-25T07:07:40.525Z,79.66
2019-04-25T07:08:40.512Z,79.66
2019-04-25T07:09:40.544Z,79.41
2019-04-25T07:10:40.490Z,77.78
2019-04-25T07:11:40.472Z,76.15
2019-04-25T07:12:40.460Z,74.91
2019-04-25T07:13:40.447Z,74.52
2019-04-25T07:14:40.442Z,75.01
2019-04-25T07:15:40.428Z,74.47
2019-04-25T07:16:40.413Z,73.80
2019-04-25T07:17:40.408Z,74.02
2019-04-25T07:18:40.393Z,72.97
2019-04-25T07:19:40.379Z,70.76
2019-04-25T07:20:40.371Z,70.23
2019-04-25T07:21:40.359Z,69.84
2019-04-25T07:22:40.358Z,69.74
2019-04-25T07:23:40.438Z,68.95
2019-04-25T07:24:40.341Z,69.52
2019-04-25T07:25:40.327Z,68.40
2019-04-25T07:26:40.311Z,68.30
2019-04-25T07:27:40.302Z,67.16
2019-04-25T07:28:40.293Z,68.30
2019-04-25T07:29:40.285Z,67.35
2019-04-25T07:30:49.951Z,68.02
2019-04-25T07:31:40.267Z,67.32
2019-04-25T07:32:40.255Z,67.32
2019-04-25T07:33:40.250Z,67.63
2019-04-25T07:34:40.233Z,67.54
2019-04-25T07:35:40.224Z,67.29
2019-04-25T07:36:40.221Z,66.71
2019-04-25T07:37:41.743Z,66.67
2019-04-25T07:38:40.198Z,66.64
2019-04-25T07:39:40.183Z,67.25
2019-04-25T07:40:40.172Z,64.63
2019-04-25T07:41:40.163Z,63.57
2019-04-25T07:42:40.159Z,63.92
2019-04-25T07:43:40.140Z,63.64
2019-04-25T07:44:49.698Z,63.96
2019-04-25T07:45:40.131Z,62.61
2019-04-25T07:46:40.281Z,62.42
2019-04-25T07:47:40.164Z,62.26
2019-04-25T07:48:40.097Z,60.78
2019-04-25T07:49:40.084Z,59.60
2019-04-25T07:50:40.080Z,60.46
2019-04-25T07:51:40.064Z,59.72
2019-04-25T07:52:40.056Z,59.66
2019-04-25T07:53:40.048Z,57.89
2019-04-25T07:54:40.051Z,56.44
2019-04-25T07:55:40.041Z,56.45
2019-04-25T07:56:40.020Z,58.54
2019-04-25T07:57:40.013Z,59.22
2019-04-25T07:58:49.266Z,58.86
2019-04-25T07:59:40.000Z,58.57
2019-04-25T08:00:39.993Z,58.25
2019-04-25T08:01:39.984Z,59.57
2019-04-25T08:02:39.976Z,59.34
2019-04-25T08:03:39.975Z,59.44
2019-04-25T08:04:39.965Z,58.60
2019-04-25T08:05:39.962Z,57.40
2019-04-25T08:06:39.948Z,56.16
2019-04-25T08:07:39.946Z,57.06
2019-04-25T08:08:39.936Z,56.26
2019-04-25T08:09:39.927Z,58.35
2019-04-25T08:10:39.922Z,59.73
2019-04-25T08:11:39.913Z,59.83
2019-04-25T08:12:39.906Z,60.72
2019-04-25T08:13:39.937Z,59.95
2019-04-25T08:14:39.884Z,59.41
2019-04-25T08:15:39.878Z,59.69
2019-04-25T08:16:39.878Z,58.37
2019-04-25T08:17:39.986Z,58.95
2019-04-25T08:18:39.854Z,59.60
2019-04-25T08:19:39.847Z,59.69
2019-04-25T08:20:40.157Z,58.54
2019-04-25T08:21:39.819Z,58.15
2019-04-25T08:22:52.749Z,58.54
2019-04-25T08:23:39.807Z,59.02
2019-04-25T08:24:39.791Z,58.35
2019-04-25T08:25:40.673Z,57.42
2019-04-25T08:26:39.779Z,55.13
2019-04-25T08:27:39.764Z,55.26
2019-04-25T08:28:52.015Z,55.81
2019-04-25T08:29:39.930Z,57.03
2019-04-25T08:30:39.736Z,58.25
2019-04-25T08:31:39.777Z,59.28
2019-04-25T08:32:39.719Z,59.95
2019-04-25T08:33:39.701Z,60.63
2019-04-25T08:34:39.697Z,61.27
2019-04-25T08:35:39.698Z,60.69
2019-04-25T08:36:39.983Z,60.21
2019-04-25T08:37:39.660Z,60.60
2019-04-25T08:38:40.273Z,60.57
2019-04-25T08:39:39.849Z,60.75
2019-04-25T08:40:40.398Z,60.40
2019-04-25T08:41:39.636Z,59.76
2019-04-25T08:42:39.856Z,58.76
2019-04-25T08:43:40.434Z,57.06
2019-04-25T08:44:39.581Z,56.00
2019-04-25T08:45:39.809Z,56.35
2019-04-25T08:46:39.590Z,54.50
2019-04-25T08:47:39.587Z,51.15
2019-04-25T08:48:39.995Z,49.39
2019-04-25T08:49:40.104Z,49.07
2019-04-25T08:50:40.989Z,49.02
2019-04-25T08:51:40.093Z,47.17
2019-04-25T08:52:40.064Z,47.45
2019-04-25T08:53:39.495Z,47.27
2019-04-25T08:54:41.512Z,46.54
2019-04-25T08:55:39.476Z,45.79
2019-04-25T08:56:39.861Z,45.67
2019-04-25T08:57:40.130Z,45.59
2019-04-25T08:58:39.458Z,45.72
2019-04-25T08:59:44.516Z,44.77
2019-04-25T09:00:40.401Z,46.59
2019-04-25T09:01:41.597Z,47.96
2019-04-25T09:02:39.450Z,47.33
2019-04-25T09:03:40.156Z,46.03
2019-04-25T09:04:40.114Z,44.67
2019-04-25T09:05:40.262Z,44.40
2019-04-25T09:06:40.358Z,42.40
2019-04-25T09:07:39.405Z,41.83
2019-04-25T09:08:39.492Z,43.61
2019-04-25T09:09:39.382Z,43.07
2019-04-25T09:10:40.155Z,44.09
2019-04-25T09:11:40.109Z,45.98
2019-04-25T09:12:39.712Z,45.57
2019-04-25T09:13:39.561Z,47.27
2019-04-25T09:14:39.353Z,47.24
2019-04-25T09:15:39.522Z,48.38
2019-04-25T09:16:39.902Z,49.89
2019-04-25T09:17:39.473Z,50.27
2019-04-25T09:18:40.217Z,50.76
2019-04-25T09:19:39.960Z,51.86
2019-04-25T09:20:41.654Z,52.22
2019-04-25T09:21:42.328Z,53.09
2019-04-25T09:22:39.921Z,54.12
2019-04-25T09:23:39.651Z,54.60
2019-04-25T09:24:40.102Z,54.69
2019-04-25T09:25:39.264Z,55.27
2019-04-25T09:26:40.015Z,55.73
2019-04-25T09:27:40.601Z,55.91
2019-04-25T09:28:40.757Z,55.91
2019-04-25T09:29:39.219Z,56.40
2019-04-25T09:30:40.191Z,56.33
2019-04-25T09:31:40.140Z,56.62
2019-04-25T09:32:39.916Z,56.52
2019-04-25T09:33:39.195Z,56.68
2019-04-25T09:34:39.163Z,56.98
2019-04-25T09:35:39.578Z,57.07
2019-04-25T09:36:39.930Z,57.26
2019-04-25T09:37:39.129Z,57.84
2019-04-25T09:38:39.114Z,57.75
2019-04-25T09:39:39.106Z,58.22
2019-04-25T09:40:39.533Z,58.13
2019-04-25T09:41:39.874Z,58.89
2019-04-25T09:42:39.389Z,58.25
2019-04-25T09:43:39.057Z,58.92
2019-04-25T09:45:39.592Z,58.51
2019-04-25T09:46:39.515Z,58.22
2019-04-25T09:47:39.261Z,58.06
2019-04-25T09:48:38.990Z,57.29
2019-04-25T09:49:39.180Z,57.00
2019-04-25T09:50:39.707Z,57.45
2019-04-25T09:51:39.718Z,57.84
2019-04-25T09:52:38.962Z,57.75
2019-04-25T09:53:44.750Z,58.83
2019-04-25T09:54:39.845Z,57.97
2019-04-25T09:55:39.591Z,57.58
2019-04-25T09:56:38.900Z,57.20
2019-04-25T09:57:39.082Z,57.39
2019-04-25T09:58:38.869Z,58.25
2019-04-25T09:59:39.369Z,57.68
2019-04-25T10:00:38.851Z,58.15
2019-04-25T10:01:38.837Z,58.92
2019-04-25T10:02:38.810Z,58.70
2019-04-25T10:03:38.808Z,58.54
2019-04-25T10:04:39.195Z,58.92
2019-04-25T10:05:38.779Z,58.51
2019-04-25T10:06:38.969Z,58.51
2019-04-25T10:07:38.743Z,58.89
2019-04-25T10:08:38.748Z,59.09
2019-04-25T10:09:38.718Z,59.76
2019-04-25T10:10:38.893Z,60.14
2019-04-25T10:11:39.856Z,59.66
2019-04-25T10:12:38.815Z,59.02
2019-04-25T10:13:38.663Z,59.60
2019-04-25T10:14:38.965Z,59.79
2019-04-25T10:15:39.077Z,58.73
2019-04-25T10:16:39.009Z,58.64
2019-04-25T10:17:39.256Z,58.45
2019-04-25T10:18:39.242Z,58.64
2019-04-25T10:19:39.131Z,59.12
2019-04-25T10:20:38.568Z,59.60
2019-04-25T10:21:39.540Z,59.31
2019-04-25T10:22:38.853Z,59.50
2019-04-25T10:23:39.763Z,59.31
2019-04-25T10:24:38.588Z,59.89
2019-04-25T10:25:38.509Z,60.05
2019-04-25T10:26:38.967Z,60.72
2019-04-25T10:27:39.260Z,60.72
2019-04-25T10:28:38.722Z,60.82
2019-04-25T10:29:44.795Z,60.34
2019-04-25T10:30:39.438Z,60.24
2019-04-25T10:31:38.433Z,59.66
2019-04-25T10:32:42.519Z,59.86
2019-04-25T10:33:38.867Z,60.05
2019-04-25T10:34:38.387Z,60.05
2019-04-25T10:35:49.238Z,60.34
2019-04-25T10:36:39.887Z,59.95
2019-04-25T10:37:38.910Z,59.95
2019-04-25T10:38:39.348Z,59.28
2019-04-25T10:39:39.156Z,59.76
2019-04-25T10:40:39.229Z,60.05
2019-04-25T10:41:39.804Z,60.14
2019-04-25T10:42:39.038Z,59.86
2019-04-25T10:43:38.261Z,59.38
2019-04-25T10:44:39.252Z,59.57
2019-04-25T10:45:38.236Z,59.95
2019-04-25T10:46:38.220Z,59.95
2019-04-25T10:47:38.216Z,59.99
2019-04-25T10:48:39.906Z,59.60
2019-04-25T10:49:38.203Z,59.50
2019-04-25T10:50:40.021Z,59.79
2019-04-25T10:51:38.161Z,58.92
2019-04-25T10:52:38.852Z,58.76
2019-04-25T10:53:38.128Z,58.37
2019-04-25T10:54:39.708Z,58.47
2019-04-25T10:55:38.103Z,58.40
2019-04-25T10:56:38.087Z,57.80
2019-04-25T10:57:38.074Z,58.02
2019-04-25T10:58:38.068Z,57.35
2019-04-25T10:59:38.053Z,56.38
2019-04-25T11:00:38.037Z,56.77
2019-04-25T11:01:38.033Z,57.35
2019-04-25T11:02:38.016Z,56.82
2019-04-25T11:03:38.024Z,55.79
2019-04-25T11:04:37.994Z,55.12
2019-04-25T11:05:37.974Z,54.44
2019-04-25T11:06:37.966Z,53.51
2019-04-25T11:07:37.947Z,53.51
2019-04-25T11:08:37.939Z,54.09
2019-04-25T11:09:37.927Z,53.31
2019-04-25T11:10:37.914Z,53.15
2019-04-25T11:11:37.904Z,52.19
2019-04-25T11:12:37.888Z,50.93
2019-04-25T11:13:37.883Z,51.20
2019-04-25T11:14:37.864Z,51.56
2019-04-25T11:15:37.853Z,52.52
2019-04-25T11:16:37.844Z,51.39
2019-04-25T11:17:37.844Z,51.41
2019-04-25T11:18:37.822Z,51.29
2019-04-25T11:19:37.808Z,51.41
2019-04-25T11:20:37.799Z,51.05
2019-04-25T11:21:37.794Z,50.57
2019-04-25T11:22:37.774Z,49.80
2019-04-25T11:23:37.771Z,49.90
2019-04-25T11:24:37.771Z,50.01
2019-04-25T11:25:37.748Z,49.07
2019-04-25T11:26:37.729Z,48.21
2019-04-25T11:27:37.718Z,48.01
2019-04-25T11:28:37.707Z,48.11
2019-04-25T11:29:37.700Z,47.65
2019-04-25T11:30:37.705Z,46.49
2019-04-25T11:31:37.673Z,46.32
2019-04-25T11:32:37.670Z,45.93
2019-04-25T11:33:37.653Z,45.74
2019-04-25T11:34:37.646Z,46.12
2019-04-25T11:35:37.642Z,46.37
2019-04-25T11:36:37.636Z,47.14
2019-04-25T11:37:37.615Z,46.73
2019-04-25T11:38:37.601Z,47.41
2019-04-25T11:39:37.596Z,47.70
2019-04-25T11:40:37.579Z,47.58
2019-04-25T11:41:37.573Z,48.33
2019-04-25T11:42:37.558Z,48.71
2019-04-25T11:43:37.553Z,49.29
2019-04-25T11:44:37.543Z,49.77
2019-04-25T11:45:37.527Z,49.19
2019-04-25T11:46:39.312Z,49.58
2019-04-25T11:47:37.510Z,49.87
2019-04-25T11:48:37.499Z,51.00
2019-04-25T11:49:38.736Z,51.00
2019-04-25T11:50:37.474Z,51.39
2019-04-25T11:51:37.473Z,51.26
2019-04-25T11:52:37.453Z,52.45
2019-04-25T11:53:37.452Z,52.95
2019-04-25T11:54:37.430Z,52.86
2019-04-25T11:55:37.423Z,52.95
2019-04-25T11:56:37.406Z,52.11
2019-04-25T11:57:37.396Z,51.44
2019-04-25T11:58:37.384Z,51.25
2019-04-25T11:59:37.380Z,51.53
2019-04-25T12:00:37.368Z,51.15
2019-04-25T12:01:37.352Z,51.05
2019-04-25T12:02:37.344Z,50.38
2019-04-25T12:03:37.332Z,51.12
2019-04-25T12:04:37.314Z,51.26
2019-04-25T12:05:37.306Z,51.75
2019-04-25T12:06:37.294Z,51.87
2019-04-25T12:07:37.292Z,51.20
2019-04-25T12:08:37.278Z,51.10
2019-04-25T12:09:37.263Z,51.26
2019-04-25T12:10:37.248Z,50.59
2019-04-25T12:11:37.236Z,51.39
2019-04-25T12:12:37.424Z,51.48
2019-04-25T12:13:37.210Z,50.90
2019-04-25T12:14:37.205Z,50.62
2019-04-25T12:15:37.190Z,50.42
2019-04-25T12:16:37.187Z,49.87
2019-04-25T12:17:37.167Z,49.48
2019-04-25T12:18:37.153Z,49.29
2019-04-25T12:19:38.096Z,48.88
2019-04-25T12:20:37.128Z,48.69
2019-04-25T12:21:37.118Z,48.49
2019-04-25T12:22:37.113Z,48.21
2019-04-25T12:23:37.095Z,48.01
2019-04-25T12:24:37.083Z,48.01
2019-04-25T12:25:37.071Z,47.80
2019-04-25T12:26:37.058Z,48.01
2019-04-25T12:27:37.045Z,47.53
2019-04-25T12:28:37.036Z,47.72
2019-04-25T12:29:38.792Z,48.01
2019-04-25T12:30:40.217Z,48.11
2019-04-25T12:31:37.001Z,47.92
2019-04-25T12:32:36.987Z,47.72
2019-04-25T12:33:36.973Z,47.65
2019-04-25T12:34:36.966Z,47.85
2019-04-25T12:35:36.954Z,48.03
2019-04-25T12:36:36.945Z,47.63
2019-04-25T12:37:36.937Z,47.72
2019-04-25T12:38:36.933Z,48.40
2019-04-25T12:39:37.123Z,47.72
2019-04-25T12:40:36.892Z,47.72
2019-04-25T12:41:36.880Z,47.72
2019-04-25T12:42:36.867Z,47.44
2019-04-25T12:43:38.092Z,47.55
2019-04-25T12:44:43.421Z,47.85
2019-04-25T12:45:36.833Z,47.45
2019-04-25T12:46:36.827Z,46.81
2019-04-25T12:47:36.824Z,46.15
2019-04-25T12:48:36.805Z,45.48
2019-04-25T12:49:36.784Z,45.48
2019-04-25T12:50:37.000Z,45.69
2019-04-25T12:51:36.762Z,45.59
2019-04-25T12:52:36.761Z,44.75
2019-04-25T12:53:36.742Z,43.59
2019-04-25T12:54:36.733Z,42.83
2019-04-25T12:55:36.720Z,42.82
2019-04-25T12:56:36.710Z,43.59